Time;durP1;ratioP1;P1;durP2;ratioP2;P2;SDS_P1;SDS_P2;PMS_P1;PMS_P2;Temp;Humidity;BMP_temperature;BMP_pressure;BME280_temperature;BME280_humidity;BME280_pressure;Samples;Min_cycle;Max_cycle;Signal;HPM_P1;HPM_P2
2021/12/30 00:01:12;;;;;;;141.35;72.80;;;179.20;2252.80;;;;;;5041162;28;20037;-76
2021/12/30 00:03:40;;;;;;;130.63;67.53;;;179.20;2252.80;;;;;;5037889;28;20048;-76
2021/12/30 00:06:07;;;;;;;132.57;74.20;;;154.50;2252.80;;;;;;5037371;28;20055;-77
2021/12/30 00:08:32;;;;;;;129.15;69.07;;;154.50;2252.80;;;;;;5039615;28;20115;-75
2021/12/30 00:10:58;;;;;;;126.18;69.38;;;179.20;2252.80;;;;;;5039474;28;20113;-76
2021/12/30 00:13:24;;;;;;;148.50;73.65;;;179.20;2252.80;;;;;;5042778;28;20017;-76
2021/12/30 00:15:51;;;;;;;123.15;69.45;;;179.20;2252.80;;;;;;5041481;28;20440;-76
2021/12/30 00:18:17;;;;;;;141.48;70.95;;;154.50;2252.80;;;;;;5042655;28;20208;-76
2021/12/30 00:20:43;;;;;;;119.32;63.90;;;154.50;2252.80;;;;;;5044295;28;20063;-76
2021/12/30 00:23:10;;;;;;;125.13;64.07;;;154.50;2252.80;;;;;;5042707;28;20033;-76
2021/12/30 00:25:41;;;;;;;108.47;59.67;;;154.50;2252.80;;;;;;5040446;28;20123;-76
2021/12/30 00:28:11;;;;;;;109.90;59.20;;;154.40;2252.80;;;;;;5039043;28;20089;-76
2021/12/30 00:30:37;;;;;;;115.90;58.67;;;154.40;2252.80;;;;;;5043866;28;20385;-77
2021/12/30 00:33:03;;;;;;;117.95;57.78;;;154.40;2252.80;;;;;;5047217;28;20032;-77
2021/12/30 00:35:29;;;;;;;101.30;55.55;;;154.30;2252.80;;;;;;5044702;28;20462;-77
2021/12/30 00:37:55;;;;;;;105.68;57.97;;;154.30;2252.80;;;;;;5045280;28;20025;-78
2021/12/30 00:40:21;;;;;;;105.30;54.28;;;154.30;2252.80;;;;;;5044809;28;20126;-77
2021/12/30 00:42:47;;;;;;;104.82;56.33;;;154.20;2252.80;;;;;;5044448;28;20071;-77
2021/12/30 00:45:13;;;;;;;110.60;57.38;;;154.30;2252.80;;;;;;5045204;28;20029;-77
2021/12/30 00:47:38;;;;;;;99.78;56.75;;;154.20;2252.80;;;;;;5031964;28;20025;-77
2021/12/30 00:50:04;;;;;;;99.38;51.60;;;154.20;2252.80;;;;;;5029548;28;20026;-77
2021/12/30 00:52:30;;;;;;;100.80;54.85;;;154.20;2252.80;;;;;;5043199;28;20057;-77
2021/12/30 00:54:56;;;;;;;96.85;53.03;;;154.10;2252.80;;;;;;5042371;28;20107;-77
2021/12/30 00:57:22;;;;;;;90.70;51.85;;;154.10;2252.80;;;;;;5047563;28;20492;-78
2021/12/30 00:59:48;;;;;;;98.75;52.78;;;154.10;2252.80;;;;;;5050439;28;20032;-78
2021/12/30 01:02:13;;;;;;;111.57;55.17;;;154.10;2252.80;;;;;;5050830;28;20021;-78
2021/12/30 01:04:39;;;;;;;95.55;51.65;;;154.00;2252.80;;;;;;5034374;28;20022;-78
2021/12/30 01:07:05;;;;;;;95.05;52.78;;;154.00;2252.80;;;;;;5039668;28;20127;-78
2021/12/30 01:09:31;;;;;;;100.57;53.10;;;153.90;2252.80;;;;;;5039901;28;20029;-77
2021/12/30 01:11:58;;;;;;;105.32;51.50;;;153.90;2252.80;;;;;;5032761;28;20413;-78
2021/12/30 01:14:27;;;;;;;96.68;49.72;;;153.90;2252.80;;;;;;5045301;28;20028;-77
2021/12/30 01:16:57;;;;;;;100.07;52.83;;;153.90;2252.80;;;;;;5050491;28;20025;-77
2021/12/30 01:19:42;;;;;;;94.88;51.70;;;153.90;2252.80;;;;;;5054759;28;20021;-78
2021/12/30 01:22:14;;;;;;;91.13;48.22;;;153.80;2252.80;;;;;;5038530;28;20112;-78
2021/12/30 01:24:41;;;;;;;104.45;54.75;;;153.80;2252.80;;;;;;5032287;28;20034;-78
2021/12/30 01:27:07;;;;;;;93.55;50.70;;;153.80;2252.80;;;;;;5045712;28;20029;-77
2021/12/30 01:29:33;;;;;;;92.78;51.65;;;153.80;2252.80;;;;;;5046268;28;20028;-77
2021/12/30 01:31:59;;;;;;;87.85;50.40;;;153.80;2252.80;;;;;;5041258;28;20120;-78
2021/12/30 01:34:27;;;;;;;98.13;53.97;;;128.90;2252.80;;;;;;5035050;28;20043;-78
2021/12/30 01:36:54;;;;;;;100.72;52.17;;;153.70;2252.80;;;;;;5047254;28;20543;-78
2021/12/30 01:39:22;;;;;;;93.78;51.20;;;153.70;2252.80;;;;;;5033837;28;20476;-78
2021/12/30 01:41:48;;;;;;;95.18;52.80;;;153.80;2252.80;;;;;;5032612;28;20029;-78
2021/12/30 01:44:14;;;;;;;96.30;50.50;;;153.70;2252.80;;;;;;5045106;28;20029;-78
2021/12/30 01:46:43;;;;;;;95.70;49.40;;;153.70;2252.80;;;;;;5038083;28;20028;-78
2021/12/30 01:49:11;;;;;;;90.22;49.88;;;153.60;2252.80;;;;;;5025806;28;20499;-78
2021/12/30 01:51:37;;;;;;;98.63;49.97;;;153.60;2252.80;;;;;;5039530;28;20021;-78
2021/12/30 01:54:03;;;;;;;97.22;51.75;;;153.60;2252.80;;;;;;5042188;28;20053;-77
2021/12/30 01:56:29;;;;;;;95.07;52.80;;;153.60;2252.80;;;;;;5044134;28;20788;-78
2021/12/30 01:58:55;;;;;;;100.60;51.17;;;153.60;2252.80;;;;;;5041264;28;20033;-78
2021/12/30 02:01:22;;;;;;;100.07;51.05;;;153.60;2252.80;;;;;;5042171;28;20022;-78
2021/12/30 02:03:48;;;;;;;102.00;54.42;;;153.60;2252.80;;;;;;5041174;28;20025;-78
2021/12/30 02:06:13;;;;;;;103.20;53.20;;;128.90;2252.80;;;;;;5040210;28;20140;-78
2021/12/30 02:08:39;;;;;;;97.95;54.67;;;153.60;2252.80;;;;;;5037971;28;20037;-78
2021/12/30 02:11:05;;;;;;;98.70;52.20;;;128.80;2252.80;;;;;;5039932;28;20036;-78
2021/12/30 02:13:31;;;;;;;98.85;53.88;;;128.80;2252.80;;;;;;5044909;28;20025;-78
2021/12/30 02:16:01;;;;;;;102.32;52.25;;;128.80;2252.80;;;;;;5041505;28;20079;-78
2021/12/30 02:18:28;;;;;;;108.15;53.75;;;128.80;2252.80;;;;;;5044192;28;20025;-78
2021/12/30 02:20:55;;;;;;;108.05;53.97;;;128.80;2252.80;;;;;;5053193;28;20082;-78
2021/12/30 02:23:27;;;;;;;101.78;54.85;;;128.80;2252.80;;;;;;5051600;28;20029;-78
2021/12/30 02:25:59;;;;;;;101.40;51.97;;;128.70;2252.80;;;;;;5051959;28;20116;-78
2021/12/30 02:28:29;;;;;;;105.82;55.25;;;128.70;2252.80;;;;;;5051066;28;20388;-78
2021/12/30 02:30:57;;;;;;;102.43;52.72;;;128.70;2252.80;;;;;;5052693;28;20075;-78
2021/12/30 02:33:24;;;;;;;105.05;52.75;;;128.70;2252.80;;;;;;5051915;28;20029;-78
2021/12/30 02:35:50;;;;;;;98.50;56.55;;;128.70;2252.80;;;;;;5051304;28;20025;-78
2021/12/30 02:38:17;;;;;;;112.57;56.05;;;128.60;2252.80;;;;;;5051906;28;20495;-78
2021/12/30 02:40:53;;;;;;;96.57;52.72;;;128.60;2252.80;;;;;;5051222;28;20445;-78
2021/12/30 02:43:25;;;;;;;119.22;58.17;;;128.60;2252.80;;;;;;5051626;28;20479;-78
2021/12/30 02:45:51;;;;;;;106.65;51.67;;;128.70;2252.80;;;;;;5042277;28;20037;-78
2021/12/30 02:48:22;;;;;;;103.80;53.88;;;128.60;2252.80;;;;;;5032332;28;20369;-78
2021/12/30 02:50:50;;;;;;;99.97;52.95;;;128.60;2252.80;;;;;;5031676;28;20018;-78
2021/12/30 02:53:16;;;;;;;98.90;52.85;;;128.60;2252.80;;;;;;5031604;28;20052;-78
2021/12/30 02:55:43;;;;;;;95.70;49.90;;;128.60;2252.80;;;;;;5031693;28;20518;-78
2021/12/30 02:58:10;;;;;;;103.50;56.72;;;128.60;2252.80;;;;;;5032420;28;20025;-77
2021/12/30 03:00:37;;;;;;;104.20;54.45;;;153.70;2252.80;;;;;;5031451;28;20032;-78
2021/12/30 03:03:04;;;;;;;105.97;53.75;;;128.60;2252.80;;;;;;5031182;28;20029;-78
2021/12/30 03:05:30;;;;;;;104.55;55.70;;;128.50;2252.80;;;;;;5032104;28;20049;-78
2021/12/30 03:07:56;;;;;;;100.50;51.22;;;128.60;2252.80;;;;;;5030987;28;20025;-78
2021/12/30 03:10:24;;;;;;;98.57;52.40;;;128.60;2252.80;;;;;;5032413;28;20029;-78
2021/12/30 03:12:56;;;;;;;106.32;51.72;;;128.50;2252.80;;;;;;5031225;28;20025;-78
2021/12/30 03:15:23;;;;;;;98.57;51.10;;;128.50;2252.80;;;;;;5030991;28;20112;-78
2021/12/30 03:17:50;;;;;;;95.25;50.17;;;128.50;2252.80;;;;;;5030920;28;20539;-78
2021/12/30 03:20:16;;;;;;;89.60;50.28;;;128.50;2252.80;;;;;;5032087;28;20072;-78
2021/12/30 03:22:44;;;;;;;98.65;53.47;;;128.50;2252.80;;;;;;5031335;28;20030;-78
2021/12/30 03:25:13;;;;;;;102.05;51.72;;;128.50;2252.80;;;;;;5032235;28;20064;-78
2021/12/30 03:27:39;;;;;;;105.93;55.80;;;128.50;2252.80;;;;;;5031487;28;20116;-78
2021/12/30 03:30:09;;;;;;;97.50;50.53;;;128.50;2252.80;;;;;;5034796;28;20074;-79
2021/12/30 03:32:35;;;;;;;102.75;54.45;;;128.50;2252.80;;;;;;5049806;28;20021;-78
2021/12/30 03:35:01;;;;;;;100.50;50.53;;;128.50;2252.80;;;;;;5050908;28;20032;-78
2021/12/30 03:37:27;;;;;;;102.93;54.55;;;128.40;2252.80;;;;;;5051985;28;20029;-78
2021/12/30 03:39:52;;;;;;;100.00;49.17;;;128.40;2252.80;;;;;;5051009;28;20032;-79
2021/12/30 03:42:18;;;;;;;91.88;47.40;;;128.40;2252.80;;;;;;5050068;28;20033;-78
2021/12/30 03:44:45;;;;;;;104.18;51.38;;;128.40;2252.80;;;;;;5032556;28;20026;-79
2021/12/30 03:47:17;;;;;;;91.15;48.08;;;128.40;2252.80;;;;;;5032216;28;20018;-78
2021/12/30 03:49:45;;;;;;;91.30;48.30;;;128.40;2252.80;;;;;;5032004;28;20129;-78
2021/12/30 03:52:15;;;;;;;96.60;48.53;;;128.40;2252.80;;;;;;5032401;28;20108;-79
2021/12/30 03:54:41;;;;;;;98.20;50.22;;;128.40;2252.80;;;;;;5030409;28;20500;-78
2021/12/30 03:57:07;;;;;;;97.28;50.38;;;128.40;2252.80;;;;;;5034299;28;20480;-79
2021/12/30 03:59:32;;;;;;;93.80;53.50;;;128.40;2252.80;;;;;;5034594;28;20060;-78
2021/12/30 04:01:58;;;;;;;89.82;49.25;;;128.40;2252.80;;;;;;5034183;28;20029;-78
2021/12/30 04:04:24;;;;;;;96.28;51.15;;;128.40;2252.80;;;;;;5034523;28;20112;-78
2021/12/30 04:06:50;;;;;;;96.70;49.65;;;128.30;2252.80;;;;;;5035486;28;20487;-78
2021/12/30 04:09:15;;;;;;;92.78;49.85;;;128.40;2252.80;;;;;;5035952;28;20026;-78
2021/12/30 04:11:41;;;;;;;101.20;52.67;;;128.40;2252.80;;;;;;5035419;28;20021;-78
2021/12/30 04:14:07;;;;;;;90.40;51.20;;;128.30;2252.80;;;;;;5035839;28;20021;-78
2021/12/30 04:16:34;;;;;;;104.90;51.00;;;128.40;2252.80;;;;;;5035343;28;20100;-78
2021/12/30 04:19:01;;;;;;;102.10;50.50;;;128.70;2252.80;;;;;;5035968;28;20440;-78
2021/12/30 04:21:27;;;;;;;101.18;46.65;;;128.40;2252.80;;;;;;5035443;28;20025;-78
2021/12/30 04:23:53;;;;;;;84.32;45.42;;;128.40;2252.80;;;;;;5035904;28;20026;-78
2021/12/30 04:26:19;;;;;;;94.97;49.55;;;128.30;2252.80;;;;;;5034097;28;20021;-78
2021/12/30 04:28:45;;;;;;;94.55;47.50;;;128.30;2252.80;;;;;;5034168;28;20026;-79
2021/12/30 04:31:11;;;;;;;90.07;47.22;;;128.30;2252.80;;;;;;5039982;28;20078;-78
2021/12/30 04:33:37;;;;;;;94.15;49.28;;;128.30;2252.80;;;;;;5032461;28;20040;-78
2021/12/30 04:36:03;;;;;;;95.88;50.33;;;128.40;2252.80;;;;;;5044079;28;20038;-78
2021/12/30 04:38:31;;;;;;;103.15;52.30;;;128.30;2252.80;;;;;;5040278;28;20133;-75
2021/12/30 04:40:57;;;;;;;94.97;52.28;;;128.30;2252.80;;;;;;5035183;28;20026;-75
2021/12/30 04:43:23;;;;;;;90.50;49.30;;;128.30;2252.80;;;;;;5034976;28;20029;-75
2021/12/30 04:45:49;;;;;;;91.78;51.75;;;128.40;2252.80;;;;;;5034959;28;20392;-75
2021/12/30 04:48:16;;;;;;;99.93;49.47;;;128.40;2252.80;;;;;;5033412;28;20130;-75
2021/12/30 04:50:44;;;;;;;98.50;52.85;;;128.40;2252.80;;;;;;5034629;28;20373;-75
2021/12/30 04:53:11;;;;;;;93.90;51.25;;;128.40;2252.80;;;;;;5033264;28;20026;-74
2021/12/30 04:55:36;;;;;;;96.28;51.92;;;128.40;2252.80;;;;;;5034801;28;20021;-75
2021/12/30 04:58:04;;;;;;;87.88;49.40;;;128.40;2252.80;;;;;;5031747;28;20080;-76
2021/12/30 05:00:32;;;;;;;99.97;49.53;;;128.40;2252.80;;;;;;5014486;28;20022;-75
2021/12/30 05:05:29;;;;;;;91.35;48.72;;;128.40;2124.80;;;;;;5014475;28;20520;-75
2021/12/30 05:07:55;;;;;;;93.15;51.13;;;128.40;2252.80;;;;;;5037199;28;20033;-74
2021/12/30 05:10:21;;;;;;;93.70;49.58;;;128.40;2227.20;;;;;;5049186;28;20029;-74
2021/12/30 05:12:47;;;;;;;102.68;51.15;;;128.40;2073.60;;;;;;5041909;28;20030;-74
2021/12/30 05:15:13;;;;;;;90.60;49.78;;;128.40;2073.60;;;;;;5042700;28;20021;-75
2021/12/30 05:17:40;;;;;;;98.93;53.10;;;128.40;2252.80;;;;;;5041825;28;20033;-75
2021/12/30 05:20:07;;;;;;;102.28;50.38;;;128.40;2252.80;;;;;;5042802;28;20074;-74
2021/12/30 05:22:33;;;;;;;102.45;51.10;;;128.50;2227.20;;;;;;5044743;28;20088;-75
2021/12/30 05:24:59;;;;;;;99.13;52.60;;;128.50;2201.60;;;;;;5041207;28;20025;-75
2021/12/30 05:27:24;;;;;;;99.07;54.08;;;128.40;2150.40;;;;;;5050905;28;20021;-74
2021/12/30 05:29:50;;;;;;;105.28;53.10;;;128.40;2201.60;;;;;;5052478;28;20055;-75
2021/12/30 05:32:16;;;;;;;102.20;51.90;;;128.40;2150.40;;;;;;5053632;28;20524;-75
2021/12/30 05:34:41;;;;;;;96.35;51.75;;;128.40;2252.80;;;;;;5044097;28;20369;-75
2021/12/30 05:37:07;;;;;;;100.97;53.35;;;128.40;2252.80;;;;;;5033574;28;20392;-74
2021/12/30 05:39:37;;;;;;;98.53;51.03;;;128.40;2252.80;;;;;;5033870;28;20044;-75
2021/12/30 05:42:03;;;;;;;118.43;54.47;;;128.40;2252.80;;;;;;5033587;28;20021;-75
2021/12/30 05:44:29;;;;;;;111.45;55.22;;;128.40;2252.80;;;;;;5033612;28;20544;-74
2021/12/30 05:46:54;;;;;;;117.80;56.67;;;128.40;2252.80;;;;;;5035530;28;20038;-74
2021/12/30 05:49:20;;;;;;;118.07;57.60;;;128.40;2252.80;;;;;;5034839;28;20025;-75
2021/12/30 05:51:46;;;;;;;106.82;52.88;;;128.40;2252.80;;;;;;5044261;28;20021;-75
2021/12/30 05:54:11;;;;;;;107.60;53.20;;;128.40;2252.80;;;;;;5041353;28;20026;-75
2021/12/30 05:56:37;;;;;;;114.55;55.97;;;128.40;2252.80;;;;;;5039572;28;20023;-75
2021/12/30 05:59:03;;;;;;;111.78;53.72;;;128.40;2252.80;;;;;;5041225;28;20103;-74
2021/12/30 06:01:28;;;;;;;118.53;55.92;;;128.40;2252.80;;;;;;5042588;28;20029;-74
2021/12/30 06:03:54;;;;;;;110.80;57.42;;;128.40;2252.80;;;;;;5033197;28;20029;-74
2021/12/30 06:06:20;;;;;;;113.22;56.75;;;128.40;2252.80;;;;;;5033313;28;20051;-74
2021/12/30 06:08:46;;;;;;;109.43;55.17;;;128.50;2252.80;;;;;;5031696;28;20030;-74
2021/12/30 06:11:11;;;;;;;115.53;58.58;;;128.50;2252.80;;;;;;5033371;28;20083;-74
2021/12/30 06:13:37;;;;;;;126.80;54.20;;;128.50;2252.80;;;;;;5032956;28;20105;-74
2021/12/30 06:16:03;;;;;;;127.47;60.25;;;128.50;2252.80;;;;;;5032888;28;20393;-74
2021/12/30 06:18:29;;;;;;;130.98;57.25;;;128.50;2252.80;;;;;;5033083;28;20036;-74
2021/12/30 06:20:55;;;;;;;146.80;61.55;;;128.50;2252.80;;;;;;5031548;28;20491;-74
2021/12/30 06:23:21;;;;;;;163.32;67.97;;;128.50;2252.80;;;;;;5032305;28;20396;-74
2021/12/30 06:25:47;;;;;;;178.57;66.45;;;128.40;2252.80;;;;;;5036276;28;20029;-75
2021/12/30 06:28:12;;;;;;;159.75;68.10;;;128.40;2252.80;;;;;;5052919;28;20021;-74
2021/12/30 06:30:38;;;;;;;154.10;65.72;;;128.40;2252.80;;;;;;5052585;28;20036;-74
2021/12/30 06:33:04;;;;;;;156.65;65.50;;;128.40;2252.80;;;;;;5039034;28;20030;-74
2021/12/30 06:35:32;;;;;;;187.38;67.47;;;128.50;2252.80;;;;;;5031141;28;20072;-74
2021/12/30 06:37:59;;;;;;;175.93;71.57;;;128.50;2252.80;;;;;;5032897;28;20439;-74
2021/12/30 06:40:25;;;;;;;181.23;70.25;;;128.40;2252.80;;;;;;5032822;28;20032;-74
2021/12/30 06:42:51;;;;;;;184.70;70.40;;;128.40;2252.80;;;;;;5032517;28;20029;-74
2021/12/30 06:45:17;;;;;;;168.32;68.38;;;128.40;2252.80;;;;;;5033660;28;20096;-74
2021/12/30 06:47:44;;;;;;;178.95;69.78;;;128.40;2252.80;;;;;;5030786;28;20073;-74
2021/12/30 06:50:12;;;;;;;212.70;77.93;;;128.40;2252.80;;;;;;5032351;28;20025;-74
2021/12/30 06:52:39;;;;;;;184.10;69.50;;;128.40;2252.80;;;;;;5032221;28;20024;-74
2021/12/30 06:55:06;;;;;;;171.38;68.65;;;128.50;2252.80;;;;;;5031395;28;20071;-74
2021/12/30 06:57:33;;;;;;;189.75;73.28;;;128.50;2252.80;;;;;;5012439;28;20018;-74
2021/12/30 06:59:59;;;;;;;193.43;75.72;;;128.60;2252.80;;;;;;5012783;28;20092;-74
2021/12/30 07:02:25;;;;;;;205.98;71.00;;;128.50;2252.80;;;;;;5012002;28;20025;-74
2021/12/30 07:04:51;;;;;;;180.52;71.90;;;128.50;2252.80;;;;;;5012344;28;20030;-74
2021/12/30 07:07:17;;;;;;;178.82;67.50;;;128.60;2252.80;;;;;;5012586;28;20074;-74
2021/12/30 07:09:42;;;;;;;195.90;72.57;;;128.70;2252.80;;;;;;5012186;28;20073;-74
2021/12/30 07:12:08;;;;;;;184.82;73.82;;;128.70;2252.80;;;;;;5012595;28;20024;-73
2021/12/30 07:14:34;;;;;;;197.48;70.82;;;128.80;2252.80;;;;;;5012226;28;20030;-74
2021/12/30 07:17:00;;;;;;;169.68;67.22;;;128.80;2252.80;;;;;;5011312;28;20120;-74
2021/12/30 07:19:26;;;;;;;167.60;62.67;;;128.80;2252.80;;;;;;5012128;28;20544;-74
2021/12/30 07:21:52;;;;;;;172.23;64.75;;;128.80;2252.80;;;;;;5012560;28;20410;-74
2021/12/30 07:24:20;;;;;;;164.65;65.10;;;128.90;2252.80;;;;;;5022643;28;20472;-74
2021/12/30 07:26:47;;;;;;;158.32;65.53;;;128.90;2252.80;;;;;;5032204;28;20051;-73
2021/12/30 07:29:13;;;;;;;136.68;55.50;;;153.70;2252.80;;;;;;5031732;28;20053;-74
2021/12/30 07:31:38;;;;;;;126.95;51.30;;;153.80;2252.80;;;;;;5043845;28;20060;-74
2021/12/30 07:34:04;;;;;;;121.38;49.95;;;153.80;2150.40;;;;;;5050265;28;20167;-73
2021/12/30 07:36:30;;;;;;;105.68;45.25;;;153.70;2252.80;;;;;;5050160;28;20504;-74
2021/12/30 07:38:56;;;;;;;110.95;43.40;;;153.60;2252.80;;;;;;5051968;28;20074;-74
2021/12/30 07:41:21;;;;;;;98.07;42.00;;;128.90;2252.80;;;;;;5048169;28;20476;-74
2021/12/30 07:43:47;;;;;;;93.75;42.65;;;128.90;2252.80;;;;;;5044556;28;20025;-74
2021/12/30 07:46:13;;;;;;;82.20;37.53;;;128.90;2252.80;;;;;;5040198;28;20087;-74
2021/12/30 07:48:39;;;;;;;89.68;39.08;;;128.90;2201.60;;;;;;5039731;28;20051;-74
2021/12/30 07:51:05;;;;;;;98.93;42.53;;;128.90;2252.80;;;;;;5045613;28;20023;-74
2021/12/30 07:53:31;;;;;;;108.40;46.28;;;128.80;2252.80;;;;;;5050291;28;20435;-74
2021/12/30 07:55:57;;;;;;;111.65;45.35;;;128.90;2252.80;;;;;;5051408;28;20021;-74
2021/12/30 07:58:23;;;;;;;118.10;48.38;;;128.90;2252.80;;;;;;5051135;28;20056;-73
2021/12/30 08:00:48;;;;;;;100.72;43.55;;;128.80;2252.80;;;;;;5051420;28;20075;-73
2021/12/30 08:03:14;;;;;;;84.53;35.90;;;128.80;2252.80;;;;;;5051029;28;20053;-74
2021/12/30 08:05:40;;;;;;;87.60;38.35;;;128.70;2252.80;;;;;;5047384;28;20472;-74
2021/12/30 08:08:06;;;;;;;92.30;36.10;;;128.70;2252.80;;;;;;5039106;28;20040;-74
2021/12/30 08:10:32;;;;;;;97.10;38.67;;;128.70;2252.80;;;;;;5037343;28;20399;-74
2021/12/30 08:12:58;;;;;;;96.85;40.92;;;128.70;2252.80;;;;;;5041226;28;20020;-74
2021/12/30 08:15:24;;;;;;;94.90;35.92;;;128.70;2252.80;;;;;;5041403;28;20483;-74
2021/12/30 08:17:50;;;;;;;103.43;44.22;;;128.80;2252.80;;;;;;5037985;28;20036;-74
2021/12/30 08:20:17;;;;;;;82.18;39.25;;;128.80;2252.80;;;;;;5042108;28;20017;-74
2021/12/30 08:22:44;;;;;;;93.78;38.10;;;128.80;2252.80;;;;;;5036499;28;20103;-74
2021/12/30 08:25:12;;;;;;;89.03;37.88;;;128.60;2252.80;;;;;;5037371;28;20048;-74
2021/12/30 08:27:38;;;;;;;81.25;37.53;;;128.60;2252.80;;;;;;5038944;28;20053;-73
2021/12/30 08:30:07;;;;;;;74.38;35.55;;;128.70;2252.80;;;;;;5042037;28;20559;-74
2021/12/30 08:32:33;;;;;;;63.75;29.70;;;128.90;2252.80;;;;;;5037474;28;20037;-74
2021/12/30 08:34:58;;;;;;;62.78;31.30;;;128.80;2227.20;;;;;;5039551;28;20541;-74
2021/12/30 08:37:24;;;;;;;75.47;33.97;;;128.90;2252.80;;;;;;5037583;28;20099;-73
2021/12/30 08:39:50;;;;;;;81.22;34.83;;;128.90;2176.00;;;;;;5049759;28;20025;-74
2021/12/30 08:42:17;;;;;;;85.65;34.90;;;128.80;2252.80;;;;;;5040084;28;20079;-74
2021/12/30 08:44:43;;;;;;;79.78;35.35;;;128.90;2252.80;;;;;;5032513;28;20030;-74
2021/12/30 08:47:09;;;;;;;71.63;34.22;;;153.60;2252.80;;;;;;5033357;28;20025;-74
2021/12/30 08:49:35;;;;;;;72.30;33.42;;;153.60;2252.80;;;;;;5034841;28;20492;-74
2021/12/30 08:52:00;;;;;;;63.83;31.10;;;153.60;2252.80;;;;;;5047580;28;20021;-73
2021/12/30 08:54:26;;;;;;;67.85;31.23;;;153.60;2252.80;;;;;;5054748;28;20476;-73
2021/12/30 08:56:52;;;;;;;67.10;28.85;;;153.60;2252.80;;;;;;5054418;28;20438;-74
2021/12/30 08:59:17;;;;;;;79.00;33.35;;;153.60;1868.80;;;;;;5053525;28;20032;-74
2021/12/30 09:01:43;;;;;;;58.75;29.83;;;153.70;1894.40;;;;;;5047890;28;20032;-75
2021/12/30 09:04:09;;;;;;;64.43;30.80;;;153.80;2252.80;;;;;;5044423;28;20029;-74
2021/12/30 09:06:35;;;;;;;65.53;30.70;;;153.70;2252.80;;;;;;5039332;28;20049;-74
2021/12/30 09:09:00;;;;;;;68.80;33.70;;;153.70;2252.80;;;;;;5036622;28;20036;-74
2021/12/30 09:11:26;;;;;;;69.28;32.92;;;153.80;2252.80;;;;;;5040848;28;20034;-74
2021/12/30 09:13:52;;;;;;;71.90;34.97;;;153.90;2252.80;;;;;;5046482;28;20025;-74
2021/12/30 09:16:17;;;;;;;65.28;31.40;;;153.80;2252.80;;;;;;5033845;28;20056;-74
2021/12/30 09:18:43;;;;;;;62.58;30.20;;;153.70;2252.80;;;;;;5035690;28;20025;-74
2021/12/30 09:21:09;;;;;;;61.95;27.65;;;153.70;2252.80;;;;;;5029892;28;20029;-74
2021/12/30 09:23:35;;;;;;;60.70;28.73;;;153.70;2252.80;;;;;;5027025;28;20025;-74
2021/12/30 09:26:00;;;;;;;60.35;31.58;;;153.60;2252.80;;;;;;5032117;28;20033;-74
2021/12/30 09:28:26;;;;;;;68.00;31.73;;;153.60;2252.80;;;;;;5049800;28;20094;-74
2021/12/30 09:30:52;;;;;;;68.55;31.63;;;153.60;2252.80;;;;;;5051191;28;20025;-74
2021/12/30 09:33:18;;;;;;;75.30;35.50;;;153.70;2252.80;;;;;;5052345;28;20029;-74
2021/12/30 09:35:47;;;;;;;68.72;31.55;;;153.60;2252.80;;;;;;5053875;28;20491;-74
2021/12/30 09:38:12;;;;;;;71.70;33.58;;;153.60;2048.00;;;;;;5053581;28;20055;-74
2021/12/30 09:40:38;;;;;;;60.75;30.27;;;128.90;1920.00;;;;;;5046638;28;20026;-74
2021/12/30 09:43:04;;;;;;;51.80;26.15;;;153.60;2252.80;;;;;;5033715;28;20032;-74
2021/12/30 09:45:37;;;;;;;63.30;30.17;;;153.80;2252.80;;;;;;5033487;28;20029;-74
2021/12/30 09:48:05;;;;;;;60.92;32.80;;;153.70;2252.80;;;;;;5033901;28;20083;-74
2021/12/30 09:50:38;;;;;;;67.82;32.15;;;153.60;2252.80;;;;;;5033225;28;20056;-74
2021/12/30 09:53:05;;;;;;;62.28;31.08;;;153.60;1945.60;;;;;;5033816;28;20022;-74
2021/12/30 09:55:31;;;;;;;67.20;31.27;;;153.70;2252.80;;;;;;5032896;28;20380;-74
2021/12/30 09:57:58;;;;;;;63.67;35.15;;;153.60;2252.80;;;;;;5035284;28;20032;-74
2021/12/30 10:00:24;;;;;;;68.07;35.88;;;153.60;1996.80;;;;;;5046256;28;20510;-74
2021/12/30 10:02:51;;;;;;;64.72;32.05;;;153.70;1894.40;;;;;;5033067;28;20100;-74
2021/12/30 10:05:20;;;;;;;51.50;25.73;;;153.60;1945.60;;;;;;5032335;28;20045;-75
2021/12/30 10:07:46;;;;;;;61.00;30.23;;;128.90;2252.80;;;;;;5031874;28;20524;-74
2021/12/30 10:10:30;;;;;;;52.65;27.00;;;128.90;2073.60;;;;;;5032171;28;20079;-74
2021/12/30 10:12:56;;;;;;;50.35;25.52;;;153.60;2252.80;;;;;;5033065;28;20025;-74
2021/12/30 10:15:25;;;;;;;55.30;25.50;;;153.70;1894.40;;;;;;5031774;28;20025;-74
2021/12/30 10:17:59;;;;;;;53.72;26.08;;;153.70;2252.80;;;;;;5033162;28;20017;-74
2021/12/30 10:20:28;;;;;;;48.67;23.80;;;128.80;2252.80;;;;;;5031573;28;20175;-74
2021/12/30 10:23:06;;;;;;;48.08;24.48;;;128.80;2252.80;;;;;;5052621;28;20030;-74
2021/12/30 10:25:35;;;;;;;53.67;27.70;;;128.70;1894.40;;;;;;5040844;28;20018;-74
2021/12/30 10:28:16;;;;;;;62.10;30.42;;;128.70;2099.20;;;;;;5038521;28;20037;-74
2021/12/30 10:30:43;;;;;;;48.53;24.20;;;128.70;2252.80;;;;;;5039017;28;20531;-74
2021/12/30 10:33:17;;;;;;;50.47;26.15;;;128.70;2252.80;;;;;;5041398;28;20021;-74
2021/12/30 10:35:43;;;;;;;58.58;31.48;;;128.70;2252.80;;;;;;5039682;28;20469;-74
2021/12/30 10:38:11;;;;;;;93.45;44.33;;;128.50;2022.40;;;;;;5038498;28;20048;-74
2021/12/30 10:40:43;;;;;;;69.53;34.55;;;128.50;2252.80;;;;;;5037464;28;20021;-74
2021/12/30 10:43:28;;;;;;;48.38;24.02;;;128.40;2252.80;;;;;;5038879;28;20032;-74
2021/12/30 10:46:06;;;;;;;46.42;22.85;;;128.40;2252.80;;;;;;5035908;28;20057;-75
2021/12/30 10:48:33;;;;;;;75.75;40.95;;;128.50;1996.80;;;;;;5034517;28;20036;-75
2021/12/30 10:51:10;;;;;;;44.88;24.05;;;128.50;2124.80;;;;;;5041767;28;20484;-74
2021/12/30 10:53:37;;;;;;;47.90;24.52;;;128.60;2124.80;;;;;;5038837;28;20040;-75
2021/12/30 10:56:25;;;;;;;52.45;27.63;;;128.60;1971.20;;;;;;5037447;28;20041;-75
2021/12/30 10:58:54;;;;;;;62.92;32.03;;;128.70;2252.80;;;;;;5037779;28;20029;-76
2021/12/30 11:01:21;;;;;;;50.38;24.38;;;128.70;2252.80;;;;;;5038965;28;20412;-76
2021/12/30 11:04:00;;;;;;;39.15;22.85;;;128.80;2252.80;;;;;;5036156;28;20365;-76
2021/12/30 11:06:27;;;;;;;36.53;22.13;;;128.80;2252.80;;;;;;5024403;28;20053;-76
2021/12/30 11:09:10;;;;;;;35.17;19.58;;;128.80;2252.80;;;;;;5021524;28;20022;-76
2021/12/30 11:11:40;;;;;;;54.85;27.50;;;128.70;2252.80;;;;;;5037819;28;20022;-76
2021/12/30 11:14:08;;;;;;;81.55;40.35;;;128.60;1920.00;;;;;;5030737;28;20101;-76
2021/12/30 11:16:53;;;;;;;57.55;33.47;;;128.50;1971.20;;;;;;5029848;28;20037;-77
2021/12/30 11:19:23;;;;;;;30.58;18.38;;;128.50;2252.80;;;;;;5036599;28;20489;-77
2021/12/30 11:21:51;;;;;;;30.90;16.95;;;128.30;1945.60;;;;;;5022869;28;20396;-77
2021/12/30 11:24:18;;;;;;;32.83;18.17;;;128.60;2252.80;;;;;;5020447;28;20026;-77
2021/12/30 11:26:44;;;;;;;34.85;21.17;;;128.70;2252.80;;;;;;5014257;28;20053;-77
2021/12/30 11:29:10;;;;;;;38.75;21.05;;;128.70;2252.80;;;;;;5020799;28;20068;-76
2021/12/30 11:31:36;;;;;;;29.17;17.23;;;128.80;2252.80;;;;;;5023592;28;20050;-77
2021/12/30 11:34:04;;;;;;;50.97;28.23;;;128.60;2252.80;;;;;;5020704;28;20026;-77
2021/12/30 11:36:30;;;;;;;33.92;18.45;;;128.60;2252.80;;;;;;5022359;28;20044;-77
2021/12/30 11:38:57;;;;;;;35.25;19.95;;;128.80;2252.80;;;;;;5017002;28;20030;-77
2021/12/30 11:41:26;;;;;;;36.42;20.33;;;128.80;2252.80;;;;;;5023175;28;20055;-77
2021/12/30 11:43:52;;;;;;;34.72;17.75;;;128.80;2252.80;;;;;;5016795;28;20036;-78
2021/12/30 11:46:39;;;;;;;28.88;16.65;;;128.80;2252.80;;;;;;5019824;28;20041;-77
2021/12/30 11:49:10;;;;;;;34.47;16.38;;;128.70;2252.80;;;;;;5022684;28;20033;-76
2021/12/30 11:51:44;;;;;;;26.52;16.48;;;128.80;2252.80;;;;;;5015880;28;20049;-76
2021/12/30 11:54:34;;;;;;;31.98;19.02;;;128.90;2252.80;;;;;;5019999;28;20056;-76
2021/12/30 11:57:32;;;;;;;40.20;20.58;;;128.90;2252.80;;;;;;5020885;28;20472;-77
2021/12/30 12:00:00;;;;;;;58.63;33.08;;;128.90;2252.80;;;;;;5034915;28;20080;-77